createdAt,value
2023-03-06T00:02:14.466Z,214656.00
2023-03-06T00:08:16.795Z,214594.00
2023-03-06T00:14:19.025Z,214554.00
2023-03-06T00:20:21.811Z,214546.00
2023-03-06T00:26:23.933Z,214554.00
2023-03-06T00:32:27.181Z,214527.00
2023-03-06T00:38:33.686Z,214502.00
2023-03-06T00:44:35.829Z,214488.00
2023-03-06T00:50:38.217Z,214442.00
2023-03-06T00:56:40.421Z,214403.00
2023-03-06T01:02:43.139Z,214341.00
2023-03-06T01:08:45.407Z,214307.00
2023-03-06T01:14:47.602Z,214299.00
2023-03-06T01:20:49.839Z,214266.00
2023-03-06T01:26:52.098Z,214227.00
2023-03-06T01:32:55.378Z,214247.00
2023-03-06T01:38:57.424Z,214249.00
2023-03-06T01:45:11.965Z,214249.00
2023-03-06T01:51:15.287Z,214227.00
2023-03-06T01:57:24.646Z,214247.00
2023-03-06T02:03:28.684Z,214274.00
2023-03-06T02:09:33.064Z,214279.00
2023-03-06T02:15:35.522Z,214266.00
2023-03-06T02:21:37.956Z,214207.00
2023-03-06T02:27:42.756Z,214167.00
2023-03-06T02:33:46.107Z,214167.00
2023-03-06T02:39:53.169Z,214126.00
2023-03-06T02:45:55.892Z,214100.00
2023-03-06T02:51:58.163Z,214066.00
2023-03-06T02:58:01.009Z,214013.00
2023-03-06T03:04:05.808Z,213988.00
2023-03-06T03:10:09.493Z,213940.00
2023-03-06T03:16:15.766Z,213926.00
2023-03-06T03:22:18.927Z,213900.00
2023-03-06T03:28:21.527Z,213900.00
2023-03-06T03:34:23.897Z,213881.00
2023-03-06T03:40:27.034Z,213865.00
2023-03-06T03:46:29.542Z,213887.00
2023-03-06T03:52:33.009Z,213853.00
2023-03-06T03:58:35.478Z,213867.00
2023-03-06T04:04:38.211Z,213813.00
2023-03-06T04:10:41.254Z,213787.00
2023-03-06T04:16:45.134Z,213746.00
2023-03-06T04:22:47.970Z,213713.00
2023-03-06T04:28:51.706Z,213681.00
2023-03-06T04:34:55.228Z,213667.00
2023-03-06T04:40:57.926Z,213659.00
2023-03-06T04:47:00.045Z,213659.00
2023-03-06T04:53:02.700Z,213659.00
2023-03-06T04:59:05.465Z,213667.00
2023-03-06T05:05:07.963Z,213746.00
2023-03-06T05:11:10.277Z,213900.00
2023-03-06T05:17:13.108Z,215381.00
2023-03-06T05:23:15.202Z,212407.00
2023-03-06T05:29:17.235Z,213081.00
2023-03-06T05:35:21.846Z,213314.00
2023-03-06T05:41:24.009Z,213597.00
2023-03-06T05:47:26.134Z,214653.00
2023-03-06T05:53:29.583Z,215225.00
2023-03-06T05:59:33.370Z,214932.00
2023-03-06T06:05:39.589Z,214341.00
2023-03-06T06:11:41.757Z,215016.00
2023-03-06T06:17:44.030Z,215615.00
2023-03-06T06:23:46.512Z,216535.00
2023-03-06T06:29:52.182Z,217488.00
2023-03-06T06:35:54.528Z,217398.00
2023-03-06T06:42:14.640Z,217398.00
2023-03-06T06:48:19.018Z,218009.00
2023-03-06T06:54:22.702Z,218587.00
2023-03-06T07:00:24.928Z,219319.00
2023-03-06T07:06:27.371Z,219335.00
2023-03-06T07:12:32.603Z,219804.00
2023-03-06T07:18:34.852Z,219528.00
2023-03-06T07:24:37.390Z,219018.00
2023-03-06T07:30:43.071Z,217895.00
2023-03-06T07:36:45.562Z,216802.00
2023-03-06T07:42:47.935Z,216037.00
2023-03-06T07:48:53.308Z,216037.00
2023-03-06T07:54:55.712Z,216238.00
2023-03-06T08:00:57.841Z,215866.00
2023-03-06T08:07:00.140Z,215112.00
2023-03-06T08:13:02.621Z,214474.00
2023-03-06T08:19:05.074Z,214133.00
2023-03-06T08:25:08.302Z,214113.00
2023-03-06T08:31:28.773Z,213894.00
2023-03-06T08:37:31.084Z,213811.00
2023-03-06T08:43:35.232Z,213673.00
2023-03-06T08:49:40.011Z,213611.00
2023-03-06T08:55:42.349Z,213595.00
2023-03-06T09:01:45.479Z,213681.00
2023-03-06T09:07:47.853Z,213736.00
2023-03-06T09:13:50.815Z,213762.00
2023-03-06T09:19:53.184Z,213928.00
2023-03-06T09:25:57.179Z,214127.00
2023-03-06T09:31:59.454Z,214274.00
2023-03-06T09:38:02.420Z,214634.00
2023-03-06T09:44:16.872Z,214703.00
2023-03-06T09:50:34.133Z,214648.00
2023-03-06T09:56:37.579Z,214681.00
2023-03-06T10:02:48.363Z,214640.00
2023-03-06T10:08:58.594Z,214855.00
2023-03-06T10:15:19.830Z,214793.00
2023-03-06T10:21:42.646Z,214779.00
2023-03-06T10:28:01.537Z,214779.00
2023-03-06T10:34:30.601Z,214889.00
2023-03-06T10:40:43.524Z,215273.00
2023-03-06T10:46:48.282Z,215756.00
2023-03-06T10:53:05.919Z,216521.00
2023-03-06T10:59:18.362Z,217115.00
2023-03-06T11:05:21.356Z,218009.00
2023-03-06T11:11:36.760Z,218222.00
2023-03-06T11:18:22.593Z,217903.00
2023-03-06T11:24:25.371Z,217619.00
2023-03-06T11:30:42.666Z,219046.00
2023-03-06T11:36:59.044Z,219521.00
2023-03-06T11:43:16.543Z,218051.00
2023-03-06T11:49:29.289Z,217014.00
2023-03-06T11:55:56.185Z,216183.00
2023-03-06T12:02:25.399Z,215720.00
2023-03-06T12:08:36.602Z,215764.00
2023-03-06T12:14:53.972Z,215894.00
2023-03-06T12:21:15.220Z,215628.00
2023-03-06T12:27:41.314Z,215560.00
2023-03-06T12:34:01.812Z,215391.00
2023-03-06T12:40:28.579Z,215323.00
2023-03-06T12:46:30.932Z,215289.00
2023-03-06T12:52:35.104Z,215355.00
2023-03-06T12:58:52.196Z,215552.00
2023-03-06T13:04:57.032Z,215756.00
2023-03-06T13:11:24.146Z,215777.00
2023-03-06T13:17:39.240Z,215656.00
2023-03-06T13:23:51.423Z,215447.00
2023-03-06T13:30:36.801Z,215642.00
2023-03-06T13:36:39.897Z,215783.00
2023-03-06T13:42:45.150Z,215560.00
2023-03-06T13:49:05.097Z,215642.00
2023-03-06T13:55:49.523Z,215909.00
2023-03-06T14:02:07.941Z,216191.00
2023-03-06T14:08:14.173Z,215783.00
2023-03-06T14:14:17.130Z,215369.00
2023-03-06T14:20:21.107Z,215162.00
2023-03-06T14:26:26.053Z,215092.00
2023-03-06T14:32:28.697Z,215092.00
2023-03-06T14:38:36.195Z,215052.00
2023-03-06T14:44:38.601Z,215002.00
2023-03-06T14:50:42.077Z,214966.00
2023-03-06T14:56:51.673Z,214932.00
2023-03-06T15:02:56.200Z,214793.00
2023-03-06T15:09:07.192Z,214648.00
2023-03-06T15:15:11.066Z,214606.00
2023-03-06T15:21:21.747Z,214515.00
2023-03-06T15:27:30.540Z,214454.00
2023-03-06T15:33:32.809Z,214404.00
2023-03-06T15:39:40.589Z,214363.00
2023-03-06T15:45:42.854Z,214260.00
2023-03-06T15:51:45.142Z,214183.00
2023-03-06T15:58:00.259Z,214099.00
2023-03-06T16:04:02.699Z,214033.00
2023-03-06T16:10:05.297Z,213928.00
2023-03-06T16:16:07.735Z,213830.00
2023-03-06T16:22:10.272Z,213720.00
2023-03-06T16:28:17.355Z,213583.00
2023-03-06T16:34:20.103Z,213489.00
2023-03-06T16:40:24.688Z,213461.00
2023-03-06T16:46:27.062Z,213350.00
2023-03-06T16:52:41.974Z,213234.00
2023-03-06T16:58:44.456Z,213137.00
2023-03-06T17:04:46.580Z,213081.00
2023-03-06T17:10:50.257Z,213019.00
2023-03-06T17:16:54.404Z,212903.00
2023-03-06T17:22:56.862Z,212883.00
2023-03-06T17:28:59.166Z,212760.00
2023-03-06T17:35:01.674Z,212658.00
2023-03-06T17:41:05.668Z,212569.00
2023-03-06T17:47:07.789Z,212468.00
2023-03-06T17:53:09.928Z,212385.00
2023-03-06T17:59:12.526Z,212357.00
2023-03-06T18:05:14.815Z,212310.00
2023-03-06T18:11:17.452Z,212223.00
2023-03-06T18:17:19.557Z,212168.00
2023-03-06T18:23:21.952Z,212078.00
2023-03-06T18:29:24.657Z,212025.00
2023-03-06T18:35:27.299Z,211989.00
2023-03-06T18:41:30.779Z,216020.00
2023-03-06T18:47:34.015Z,215987.00
2023-03-06T18:53:37.020Z,215979.00
2023-03-06T18:59:39.144Z,212017.00
2023-03-06T19:05:42.948Z,212122.00
2023-03-06T19:11:47.169Z,212215.00
2023-03-06T19:17:50.166Z,212331.00
2023-03-06T19:23:52.602Z,212310.00
2023-03-06T19:29:54.901Z,212242.00
2023-03-06T19:35:57.429Z,212296.00
2023-03-06T19:42:00.065Z,212256.00
2023-03-06T19:48:03.508Z,212168.00
2023-03-06T19:54:05.748Z,212215.00
2023-03-06T20:00:09.085Z,212182.00
2023-03-06T20:06:17.666Z,212045.00
2023-03-06T20:12:20.967Z,212017.00
2023-03-06T20:18:23.475Z,212066.00
2023-03-06T20:24:26.496Z,212045.00
2023-03-06T20:30:37.526Z,212106.00
2023-03-06T20:36:40.842Z,212162.00
2023-03-06T20:42:43.171Z,212215.00
2023-03-06T20:48:47.511Z,212310.00
2023-03-06T20:54:50.271Z,212385.00
2023-03-06T21:00:52.854Z,212421.00
2023-03-06T21:06:55.580Z,212421.00
2023-03-06T21:12:57.869Z,212441.00
2023-03-06T21:19:01.103Z,212499.00
2023-03-06T21:25:03.309Z,212549.00
2023-03-06T21:31:08.866Z,212596.00
2023-03-06T21:37:11.403Z,212646.00
2023-03-06T21:43:13.868Z,212618.00
2023-03-06T21:49:16.032Z,212569.00
2023-03-06T21:55:18.491Z,212521.00
2023-03-06T22:01:23.976Z,212507.00
2023-03-06T22:07:26.526Z,212529.00
2023-03-06T22:13:29.097Z,212527.00
2023-03-06T22:19:31.315Z,212549.00
2023-03-06T22:25:34.994Z,212588.00
2023-03-06T22:31:39.278Z,212596.00
2023-03-06T22:37:42.832Z,212680.00
2023-03-06T22:43:45.112Z,212706.00
2023-03-06T22:49:47.280Z,212726.00
2023-03-06T22:55:49.343Z,212766.00
2023-03-06T23:01:51.575Z,212735.00
2023-03-06T23:07:53.997Z,212766.00
2023-03-06T23:13:57.413Z,212816.00
2023-03-06T23:20:18.584Z,212869.00
2023-03-06T23:26:41.187Z,212953.00
2023-03-06T23:32:45.735Z,212842.00
2023-03-06T23:38:48.757Z,212788.00
2023-03-06T23:44:50.858Z,212733.00
2023-03-06T23:50:54.024Z,212632.00
2023-03-06T23:56:56.561Z,212577.00
